Time;durP1;ratioP1;P1;durP2;ratioP2;P2;SDS_P1;SDS_P2;PMS_P1;PMS_P2;Temp;Humidity;BMP_temperature;BMP_pressure;BME280_temperature;BME280_humidity;BME280_pressure;Samples;Min_cycle;Max_cycle;Signal;HPM_P1;HPM_P2
2021/05/06 00:02:32;;;;;;;0.60;0.60;;;;;;;6.10;76.38;100034.41;4955691;29;20462;-67
2021/05/06 00:08:06;;;;;;;0.50;0.30;;;;;;;6.10;76.09;100030.91;4918463;28;20468;-70
2021/05/06 00:30:07;;;;;;;0.60;0.50;;;;;;;6.04;76.03;100035.53;4955194;28;20542;-71
2021/05/06 00:32:34;;;;;;;0.60;0.50;;;;;;;6.02;76.99;100041.22;4955491;28;20435;-71
2021/05/06 00:35:00;;;;;;;0.97;0.97;;;;;;;6.01;76.08;100042.28;4955398;28;20438;-71
2021/05/06 00:37:26;;;;;;;0.67;0.50;;;;;;;6.04;75.80;100041.72;4955156;28;20806;-71
2021/05/06 00:39:56;;;;;;;0.40;0.40;;;;;;;6.01;75.85;100047.66;4955293;28;20467;-71
2021/05/06 00:42:36;;;;;;;0.40;0.30;;;;;;;5.97;76.62;100041.25;4955367;28;20478;-70
2021/05/06 00:59:22;;;;;;;2.47;1.03;;;;;;;5.84;77.24;100052.63;4955204;28;20415;-70
2021/05/06 01:02:02;;;;;;;0.70;0.70;;;;;;;5.82;76.94;100050.22;4955196;28;20570;-70
2021/05/06 01:04:42;;;;;;;1.10;0.40;;;;;;;5.78;76.85;100056.44;4955044;28;20467;-70
2021/05/06 01:07:21;;;;;;;0.73;0.50;;;;;;;5.79;77.43;100056.16;4954985;28;20473;-70
2021/05/06 01:09:56;;;;;;;0.40;0.30;;;;;;;5.77;77.49;100054.84;4954785;28;20885;-70
2021/05/06 01:12:22;;;;;;;0.47;0.33;;;;;;;5.77;77.25;100052.97;4955040;28;20438;-70
2021/05/06 01:14:48;;;;;;;0.90;0.80;;;;;;;5.80;76.36;100062.34;4954999;28;20443;-70
2021/05/06 01:17:15;;;;;;;1.00;0.97;;;;;;;5.75;77.12;100049.75;4954938;28;20474;-70
2021/05/06 01:19:41;;;;;;;0.40;0.30;;;;;;;5.72;77.41;100058.38;4954756;28;20469;-70
2021/05/06 01:22:08;;;;;;;0.60;0.40;;;;;;;5.71;78.06;100054.09;4955006;28;20443;-70
2021/05/06 01:24:35;;;;;;;0.40;0.30;;;;;;;5.70;77.07;100051.69;4958135;28;20502;-70
2021/05/06 01:27:05;;;;;;;0.40;0.30;;;;;;;5.66;78.15;100048.75;4958466;28;20461;-69
2021/05/06 01:29:34;;;;;;;0.40;0.30;;;;;;;5.65;78.13;100049.84;4964812;28;20513;-71
2021/05/06 01:32:10;;;;;;;0.80;0.40;;;;;;;5.66;76.86;100059.50;4958604;28;20479;-71
2021/05/06 01:34:37;;;;;;;0.40;0.30;;;;;;;5.61;77.25;100056.06;4958453;28;20463;-70
2021/05/06 01:37:09;;;;;;;0.40;0.30;;;;;;;5.60;75.95;100054.44;4958713;28;20453;-71
2021/05/06 01:42:32;;;;;;;0.40;0.30;;;;;;;5.54;78.19;100057.19;4934532;28;20442;-70
2021/05/06 01:45:15;;;;;;;0.40;0.30;;;;;;;5.52;76.25;100053.97;4958336;28;20551;-70
2021/05/06 01:47:43;;;;;;;0.60;0.50;;;;;;;5.49;76.09;100056.41;4958434;28;20431;-70
2021/05/06 02:01:04;;;;;;;0.63;0.50;;;;;;;5.38;76.79;100044.13;4958246;28;20438;-70
2021/05/06 02:03:30;;;;;;;0.40;0.30;;;;;;;5.38;76.41;100038.78;4958159;28;20568;-70
2021/05/06 02:05:57;;;;;;;0.83;0.70;;;;;;;5.33;78.04;100042.28;4957923;28;20486;-70
2021/05/06 02:08:24;;;;;;;0.80;0.50;;;;;;;5.29;78.70;100049.31;4957654;28;20470;-70
2021/05/06 02:10:54;;;;;;;0.70;0.70;;;;;;;5.31;77.53;100044.44;4957899;28;20462;-70
2021/05/06 02:13:20;;;;;;;0.40;0.40;;;;;;;5.28;77.02;100043.13;4958153;28;20489;-70
2021/05/06 02:15:50;;;;;;;0.50;0.37;;;;;;;5.29;78.19;100044.72;4957859;28;20447;-70
2021/05/06 02:18:16;;;;;;;0.40;0.30;;;;;;;5.30;78.56;100037.47;4957916;28;20442;-70
2021/05/06 02:20:42;;;;;;;0.57;0.40;;;;;;;5.26;78.20;100042.59;4957384;28;20561;-71
2021/05/06 02:23:09;;;;;;;0.50;0.40;;;;;;;5.23;78.16;100040.50;4957747;28;20931;-70
2021/05/06 02:25:35;;;;;;;0.40;0.30;;;;;;;5.25;79.47;100042.88;4957594;28;20483;-70
2021/05/06 02:28:02;;;;;;;0.70;0.33;;;;;;;5.27;79.26;100049.59;4963671;28;20537;-70
2021/05/06 02:30:28;;;;;;;0.50;0.40;;;;;;;5.28;80.25;100045.81;4957415;28;20471;-70
2021/05/06 02:32:54;;;;;;;0.40;0.30;;;;;;;5.24;78.50;100055.50;4957665;28;20537;-70
2021/05/06 02:35:20;;;;;;;1.17;1.07;;;;;;;5.26;79.10;100047.16;4956723;28;20925;-70
2021/05/06 02:37:46;;;;;;;6.40;1.27;;;;;;;5.24;79.44;100052.81;4957144;28;20849;-70
2021/05/06 02:40:13;;;;;;;0.80;0.80;;;;;;;5.21;79.85;100050.69;4957309;28;20502;-70
2021/05/06 02:42:39;;;;;;;0.60;0.47;;;;;;;5.19;79.77;100052.84;4957535;28;20438;-71
2021/05/06 02:45:08;;;;;;;0.40;0.30;;;;;;;5.19;80.56;100058.22;4957291;28;20490;-70
2021/05/06 02:47:35;;;;;;;0.40;0.40;;;;;;;5.16;81.59;100055.28;4957017;28;20845;-70
2021/05/06 02:50:01;;;;;;;0.40;0.30;;;;;;;5.13;81.51;100053.16;4957180;28;20482;-70
2021/05/06 02:52:32;;;;;;;0.80;0.70;;;;;;;5.16;80.82;100053.41;4957164;28;20454;-70
2021/05/06 02:55:05;;;;;;;3.30;0.50;;;;;;;5.18;80.23;100062.00;4957263;28;20431;-69
2021/05/06 02:57:38;;;;;;;0.50;0.40;;;;;;;5.12;81.29;100056.94;4957152;28;20480;-69
2021/05/06 03:02:51;;;;;;;0.57;0.37;;;;;;;5.14;81.25;100062.84;4956945;29;20786;-69
2021/05/06 03:05:19;;;;;;;0.50;0.47;;;;;;;5.13;81.64;100061.22;4956870;28;20575;-69
2021/05/06 03:07:51;;;;;;;0.80;0.80;;;;;;;5.12;82.12;100051.56;4956550;28;20565;-69
2021/05/06 03:10:28;;;;;;;0.77;0.40;;;;;;;5.06;81.37;100053.47;4958270;28;20475;-70
2021/05/06 03:23:57;;;;;;;0.60;0.43;;;;;;;5.11;81.82;100066.06;4954485;28;20933;-70
2021/05/06 03:26:23;;;;;;;0.40;0.30;;;;;;;5.10;81.30;100064.47;4956520;28;20459;-70
2021/05/06 03:28:52;;;;;;;0.60;0.40;;;;;;;5.10;81.16;100059.91;4956552;28;20538;-70
2021/05/06 03:42:13;;;;;;;0.90;0.53;;;;;;;5.10;80.54;100070.63;4956093;29;20415;-71
2021/05/06 03:44:49;;;;;;;0.97;0.90;;;;;;;5.11;80.43;100066.88;4955996;28;20996;-70
2021/05/06 04:15:28;;;;;;;1.10;1.00;;;;;;;5.22;79.89;100079.16;4961764;29;20410;-67
2021/05/06 04:18:01;;;;;;;13.97;0.60;;;;;;;5.23;79.50;100083.44;4955385;28;20461;-68
2021/05/06 04:26:12;;;;;;;1.43;1.00;;;;;;;5.26;77.21;100088.25;4955242;29;20482;-67
2021/05/06 04:36:55;;;;;;;0.57;0.57;;;;;;;5.30;77.45;100091.97;4955225;29;20482;-68
2021/05/06 04:39:29;;;;;;;0.50;0.33;;;;;;;5.35;76.29;100093.81;4955371;28;20962;-68
2021/05/06 04:42:05;;;;;;;2.40;0.57;;;;;;;5.39;75.12;100099.44;4955310;28;20431;-68
2021/05/06 04:50:26;;;;;;;0.40;0.30;;;;;;;5.53;75.19;100095.88;4954985;28;20527;-68
2021/05/06 04:55:40;;;;;;;0.40;0.30;;;;;;;5.67;74.51;100101.41;4955049;29;20410;-68
2021/05/06 05:03:52;;;;;;;0.77;0.40;;;;;;;5.88;75.18;100095.88;4917995;28;20497;-68
2021/05/06 05:06:20;;;;;;;0.50;0.40;;;;;;;5.91;74.89;100098.00;4954942;28;20466;-68
2021/05/06 05:08:50;;;;;;;0.93;0.40;;;;;;;5.96;73.57;100103.34;4955105;28;20435;-68
2021/05/06 05:11:29;;;;;;;0.80;0.50;;;;;;;6.04;72.71;100097.38;4954948;28;20485;-70
2021/05/06 05:14:14;;;;;;;1.57;1.47;;;;;;;6.10;72.66;100109.69;4955084;28;20521;-71
2021/05/06 05:19:44;;;;;;;0.80;0.70;;;;;;;6.22;72.05;100112.00;4954799;28;20449;-71
2021/05/06 05:25:00;;;;;;;0.40;0.30;;;;;;;6.41;71.26;100104.00;4954635;29;20887;-72
2021/05/06 05:27:26;;;;;;;0.40;0.30;;;;;;;6.50;72.14;100110.38;4954978;28;20431;-72
2021/05/06 05:29:52;;;;;;;0.70;0.60;;;;;;;6.60;71.09;100104.06;4954570;28;20473;-71
2021/05/06 05:32:19;;;;;;;0.70;0.40;;;;;;;6.64;71.51;100103.22;4954835;28;20450;-72
2021/05/06 05:34:47;;;;;;;0.50;0.37;;;;;;;6.74;70.13;100103.09;4954800;28;20439;-71
2021/05/06 05:37:18;;;;;;;0.40;0.30;;;;;;;6.72;69.30;100099.88;4954912;28;20468;-73
2021/05/06 05:39:56;;;;;;;0.50;0.50;;;;;;;6.81;68.41;100103.53;4955082;28;20462;-72
2021/05/06 05:42:30;;;;;;;1.67;1.57;;;;;;;6.90;68.58;100106.41;4954839;28;20435;-71
2021/05/06 05:55:55;;;;;;;1.90;0.97;;;;;;;7.29;67.05;100103.47;4954473;29;20929;-72
2021/05/06 05:58:22;;;;;;;0.97;0.90;;;;;;;7.42;67.25;100106.53;4954598;28;20462;-71
2021/05/06 06:00:48;;;;;;;2.10;0.60;;;;;;;7.50;66.70;100108.56;4954172;28;20490;-71
2021/05/06 06:03:14;;;;;;;0.70;0.60;;;;;;;7.63;67.19;100096.25;4960379;28;20447;-71
2021/05/06 06:05:40;;;;;;;10.07;0.97;;;;;;;7.69;65.57;100100.47;4954141;28;20839;-72
2021/05/06 06:08:06;;;;;;;0.50;0.30;;;;;;;7.75;66.33;100097.41;4954133;28;20915;-72
2021/05/06 06:10:32;;;;;;;0.70;0.40;;;;;;;7.71;65.71;100101.78;4956353;28;20470;-72
2021/05/06 06:12:58;;;;;;;0.60;0.40;;;;;;;7.80;66.87;100100.03;4957624;28;20948;-72
2021/05/06 06:15:37;;;;;;;0.70;0.70;;;;;;;7.84;66.14;100103.72;4957883;28;20501;-71
2021/05/06 06:18:10;;;;;;;0.70;0.53;;;;;;;7.83;64.96;100104.84;4957893;28;20656;-72
2021/05/06 06:20:39;;;;;;;1.17;1.07;;;;;;;7.75;64.63;100105.50;4957766;28;20479;-71
2021/05/06 06:23:05;;;;;;;1.43;0.50;;;;;;;7.69;65.52;100112.03;4957364;28;21193;-71
2021/05/06 06:25:31;;;;;;;0.50;0.47;;;;;;;7.66;65.04;100107.25;4957599;28;20482;-70
2021/05/06 06:27:57;;;;;;;2.60;1.30;;;;;;;7.63;65.81;100117.81;4957631;28;20513;-71
2021/05/06 06:30:23;;;;;;;4.57;0.70;;;;;;;7.64;65.36;100116.72;4957527;28;20470;-71
2021/05/06 06:32:52;;;;;;;0.50;0.40;;;;;;;7.61;65.16;100109.22;4957615;28;20450;-70
2021/05/06 06:35:18;;;;;;;3.43;0.60;;;;;;;7.73;66.23;100113.06;4957469;28;20457;-71
2021/05/06 06:37:44;;;;;;;0.40;0.30;;;;;;;7.84;65.13;100117.22;4957142;28;20463;-71
2021/05/06 06:40:12;;;;;;;0.60;0.50;;;;;;;7.92;65.81;100104.13;4957354;28;20466;-71
2021/05/06 06:42:38;;;;;;;0.60;0.50;;;;;;;8.07;63.84;100103.91;4957116;28;20942;-71
2021/05/06 06:45:05;;;;;;;0.57;0.40;;;;;;;8.19;63.39;100109.63;4957346;28;20491;-71
2021/05/06 06:47:31;;;;;;;1.00;0.87;;;;;;;8.13;62.53;100108.09;4957262;28;20505;-71
2021/05/06 06:49:58;;;;;;;0.40;0.30;;;;;;;8.24;62.82;100117.63;4957187;28;20462;-71
2021/05/06 06:52:24;;;;;;;0.60;0.30;;;;;;;8.34;63.16;100106.66;4957237;28;20446;-70
2021/05/06 06:54:50;;;;;;;0.60;0.40;;;;;;;8.35;61.87;100102.84;4957135;28;20937;-71
2021/05/06 06:57:16;;;;;;;0.40;0.30;;;;;;;8.47;62.10;100107.00;4956805;28;20446;-71
2021/05/06 06:59:42;;;;;;;0.80;0.60;;;;;;;8.57;62.81;100107.59;4956971;28;20475;-72
2021/05/06 07:02:08;;;;;;;0.40;0.30;;;;;;;8.61;61.45;100107.00;4956958;28;20510;-68
2021/05/06 07:04:33;;;;;;;0.60;0.60;;;;;;;8.61;62.18;100105.09;4956872;28;20486;-68
2021/05/06 07:07:00;;;;;;;1.07;0.50;;;;;;;8.44;61.47;100107.59;4956713;28;20454;-70
2021/05/06 07:09:26;;;;;;;0.50;0.50;;;;;;;8.54;61.50;100118.19;4956708;28;20509;-71
2021/05/06 07:11:52;;;;;;;0.40;0.30;;;;;;;8.61;61.99;100129.41;4956820;28;20451;-71
2021/05/06 07:14:18;;;;;;;0.50;0.30;;;;;;;8.69;62.16;100111.72;4956828;28;20450;-71
2021/05/06 07:16:44;;;;;;;0.60;0.60;;;;;;;8.73;61.83;100120.81;4956431;28;20447;-71
2021/05/06 07:19:10;;;;;;;0.50;0.30;;;;;;;8.75;61.38;100116.69;4956665;28;20505;-70
2021/05/06 07:21:36;;;;;;;0.70;0.70;;;;;;;8.73;62.12;100118.91;4956396;28;20501;-71
2021/05/06 07:24:04;;;;;;;0.60;0.50;;;;;;;8.87;61.29;100115.41;4956608;28;20447;-70
2021/05/06 07:26:31;;;;;;;0.83;0.53;;;;;;;8.98;60.98;100119.50;4956496;28;20545;-70
2021/05/06 07:28:57;;;;;;;3.60;1.00;;;;;;;8.96;60.59;100127.09;4956440;28;20462;-70
2021/05/06 07:31:23;;;;;;;1.83;1.10;;;;;;;9.04;60.88;100123.69;4956339;28;20885;-69
2021/05/06 07:33:50;;;;;;;0.70;0.57;;;;;;;9.07;59.85;100120.38;4956433;28;20443;-70
2021/05/06 07:36:18;;;;;;;0.87;0.70;;;;;;;9.16;60.20;100120.47;4956343;28;20453;-69
2021/05/06 07:38:44;;;;;;;0.50;0.30;;;;;;;9.26;59.31;100118.34;4956255;28;20447;-70
2021/05/06 07:41:12;;;;;;;0.70;0.40;;;;;;;9.31;59.32;100123.66;4955625;28;20454;-69
2021/05/06 07:43:39;;;;;;;0.70;0.43;;;;;;;9.31;58.46;100112.03;4955569;28;20454;-70
2021/05/06 07:46:05;;;;;;;0.83;0.60;;;;;;;9.19;57.78;100120.66;4955226;28;20486;-69
2021/05/06 07:48:32;;;;;;;0.50;0.40;;;;;;;9.18;58.42;100119.06;4955667;28;20451;-70
2021/05/06 07:50:58;;;;;;;1.30;0.90;;;;;;;9.19;57.80;100127.97;4955282;28;20451;-70
2021/05/06 07:53:25;;;;;;;2.00;1.40;;;;;;;9.02;58.36;100118.56;4961022;28;20447;-71
2021/05/06 07:55:52;;;;;;;0.73;0.53;;;;;;;8.97;58.04;100117.91;4955202;28;20451;-70
2021/05/06 07:58:20;;;;;;;0.77;0.60;;;;;;;9.00;58.81;100120.78;4955181;28;20458;-70
2021/05/06 08:00:46;;;;;;;11.23;1.33;;;;;;;9.08;58.78;100113.88;4955243;28;20463;-70
2021/05/06 08:03:12;;;;;;;1.10;0.60;;;;;;;9.27;57.55;100128.06;4955267;28;20469;-72
2021/05/06 08:05:38;;;;;;;1.97;0.90;;;;;;;9.34;57.14;100123.06;4955300;29;20510;-71
2021/05/06 08:08:05;;;;;;;2.53;1.37;;;;;;;9.37;57.37;100115.41;4954919;28;20537;-71
2021/05/06 08:10:32;;;;;;;0.60;0.50;;;;;;;9.34;57.03;100128.47;4955152;28;20475;-71
2021/05/06 08:12:58;;;;;;;0.90;0.70;;;;;;;9.34;56.82;100114.94;4955113;28;20443;-71
2021/05/06 08:15:26;;;;;;;1.43;0.53;;;;;;;9.35;55.42;100119.25;4954837;28;20850;-71
2021/05/06 08:17:53;;;;;;;0.50;0.40;;;;;;;9.39;57.67;100121.34;4954734;28;20823;-70
2021/05/06 08:20:20;;;;;;;0.87;0.87;;;;;;;9.38;56.71;100117.00;4955018;28;20517;-70
2021/05/06 08:22:46;;;;;;;1.83;1.03;;;;;;;9.40;57.27;100121.03;4955047;28;20450;-69
2021/05/06 08:25:15;;;;;;;0.80;0.60;;;;;;;9.33;57.00;100126.84;4954957;28;20493;-68
2021/05/06 08:27:42;;;;;;;8.13;0.60;;;;;;;9.34;58.68;100124.94;4955076;28;20442;-71
2021/05/06 08:30:10;;;;;;;0.53;0.40;;;;;;;9.44;56.66;100108.50;4954934;28;20462;-71
2021/05/06 08:32:37;;;;;;;0.60;0.50;;;;;;;9.51;57.57;100102.66;4954073;28;20967;-70
2021/05/06 08:35:03;;;;;;;0.80;0.67;;;;;;;9.62;56.23;100111.34;4954821;28;20805;-71
2021/05/06 08:37:29;;;;;;;0.57;0.43;;;;;;;9.63;55.10;100111.03;4954860;28;20455;-71
2021/05/06 08:39:55;;;;;;;1.23;1.07;;;;;;;9.69;55.25;100112.50;4954402;28;20834;-71
2021/05/06 08:42:22;;;;;;;0.80;0.80;;;;;;;9.73;54.74;100118.91;4955015;28;20525;-71
2021/05/06 08:44:48;;;;;;;0.70;0.53;;;;;;;9.82;55.11;100119.75;4954401;28;21034;-71
2021/05/06 08:47:17;;;;;;;2.03;0.50;;;;;;;10.06;54.66;100124.88;4954934;28;20486;-70
2021/05/06 08:49:45;;;;;;;5.70;0.70;;;;;;;10.23;53.87;100118.78;4954918;28;20503;-71
2021/05/06 08:52:16;;;;;;;1.07;0.67;;;;;;;10.39;53.73;100119.19;4954625;28;20451;-71
2021/05/06 08:54:42;;;;;;;1.00;0.87;;;;;;;10.69;54.03;100128.41;4954675;28;20434;-71
2021/05/06 08:57:08;;;;;;;0.93;0.90;;;;;;;10.95;53.40;100123.09;4954401;28;20788;-71
2021/05/06 08:59:34;;;;;;;1.13;0.70;;;;;;;10.84;51.44;100127.19;4954179;28;20490;-71
2021/05/06 09:02:00;;;;;;;2.07;0.83;;;;;;;10.91;51.38;100121.31;4954618;28;20450;-71
2021/05/06 09:04:26;;;;;;;2.20;0.83;;;;;;;11.00;51.64;100130.25;4954665;28;20498;-71
2021/05/06 09:06:55;;;;;;;2.10;1.37;;;;;;;10.98;50.88;100129.75;4954155;28;20493;-71
2021/05/06 09:09:22;;;;;;;4.50;1.20;;;;;;;10.88;51.48;100135.47;4954489;28;20469;-71
2021/05/06 09:11:53;;;;;;;0.60;0.40;;;;;;;10.75;51.54;100132.56;4955730;28;20450;-71
2021/05/06 09:14:34;;;;;;;0.97;0.83;;;;;;;10.78;51.94;100131.16;4954509;28;20443;-71
2021/05/06 09:17:00;;;;;;;0.93;0.90;;;;;;;10.73;53.29;100134.81;4954593;28;20423;-71
2021/05/06 09:19:26;;;;;;;0.70;0.40;;;;;;;10.66;53.08;100139.06;4954464;28;20471;-72
2021/05/06 09:21:52;;;;;;;0.50;0.50;;;;;;;10.52;52.86;100145.38;4954599;28;20806;-71
2021/05/06 09:24:22;;;;;;;13.60;0.83;;;;;;;10.38;53.36;100136.56;4954530;28;20529;-71
2021/05/06 09:26:52;;;;;;;1.80;1.03;;;;;;;10.13;54.62;100137.97;4954980;28;20497;-70
2021/05/06 09:29:34;;;;;;;1.40;0.80;;;;;;;10.12;54.71;100147.19;4954379;28;20494;-71
2021/05/06 09:32:12;;;;;;;1.50;0.73;;;;;;;10.07;57.91;100150.03;4954229;28;20975;-71
2021/05/06 09:34:39;;;;;;;1.20;1.10;;;;;;;9.93;59.70;100139.28;4954257;28;20525;-71
2021/05/06 09:37:07;;;;;;;4.83;1.13;;;;;;;9.79;61.42;100138.53;4954262;28;20445;-72
2021/05/06 09:39:35;;;;;;;1.43;1.17;;;;;;;9.78;63.37;100136.91;4954015;28;20471;-71
2021/05/06 09:42:10;;;;;;;4.90;1.30;;;;;;;9.70;63.85;100141.16;4959727;28;20442;-71
2021/05/06 09:44:52;;;;;;;1.60;1.00;;;;;;;9.72;61.90;100133.53;4956342;28;20449;-71
2021/05/06 09:47:18;;;;;;;1.13;1.00;;;;;;;9.73;62.74;100129.72;4957886;28;20449;-71
2021/05/06 09:49:44;;;;;;;1.47;1.00;;;;;;;9.46;63.04;100133.31;4957703;28;20466;-70
2021/05/06 09:52:11;;;;;;;0.90;0.63;;;;;;;9.25;63.82;100129.44;4957967;28;20443;-71
2021/05/06 09:54:47;;;;;;;1.20;1.10;;;;;;;9.14;67.19;100136.19;4957777;28;20501;-73
2021/05/06 09:57:13;;;;;;;1.03;0.97;;;;;;;9.06;67.92;100143.09;4957361;28;20853;-71
2021/05/06 09:59:40;;;;;;;2.57;1.00;;;;;;;8.92;70.18;100139.59;4957312;28;20494;-70
2021/05/06 10:02:07;;;;;;;3.83;1.47;;;;;;;8.81;71.29;100142.53;4957473;28;20447;-71
2021/05/06 10:04:33;;;;;;;1.23;1.07;;;;;;;8.75;73.24;100138.28;4957722;28;20470;-70
2021/05/06 10:07:14;;;;;;;5.70;2.53;;;;;;;8.77;74.13;100140.72;4957437;28;20840;-69
2021/05/06 10:09:52;;;;;;;1.70;0.83;;;;;;;8.72;72.26;100146.19;4957383;28;20904;-70
2021/05/06 10:12:19;;;;;;;2.80;1.50;;;;;;;8.91;71.70;100143.41;4957477;28;20462;-71
2021/05/06 10:14:46;;;;;;;1.77;0.80;;;;;;;9.08;72.01;100143.63;4957416;28;20493;-71
2021/05/06 10:17:13;;;;;;;2.63;1.03;;;;;;;9.37;70.92;100128.94;4957360;28;20446;-71
2021/05/06 10:19:40;;;;;;;1.47;1.17;;;;;;;9.58;68.09;100143.59;4957234;28;20471;-71
2021/05/06 10:22:07;;;;;;;1.53;1.43;;;;;;;9.62;67.72;100133.78;4957085;28;20820;-71
2021/05/06 10:24:34;;;;;;;1.57;1.33;;;;;;;9.76;66.18;100131.81;4957074;28;20450;-71
2021/05/06 10:27:01;;;;;;;1.03;1.03;;;;;;;10.05;67.44;100138.72;4956620;28;20850;-71
2021/05/06 10:29:28;;;;;;;2.83;1.90;;;;;;;10.33;65.92;100129.38;4956879;28;21108;-71
2021/05/06 10:31:54;;;;;;;1.30;1.03;;;;;;;10.42;61.97;100137.53;4957268;28;20458;-71
2021/05/06 10:34:21;;;;;;;2.20;1.50;;;;;;;10.55;60.30;100138.56;4957066;28;20451;-71
2021/05/06 10:36:49;;;;;;;1.17;1.07;;;;;;;10.80;61.25;100137.03;4957021;28;20947;-71
2021/05/06 10:39:15;;;;;;;1.33;1.07;;;;;;;10.91;59.29;100143.00;4957132;28;20451;-71
2021/05/06 10:41:41;;;;;;;2.13;0.93;;;;;;;10.77;58.04;100130.34;4957380;28;20545;-72
2021/05/06 10:44:09;;;;;;;1.17;1.10;;;;;;;10.75;58.08;100146.09;4957094;28;20447;-71
2021/05/06 10:46:58;;;;;;;2.20;1.20;;;;;;;10.81;57.60;100147.59;4957224;28;20537;-72
2021/05/06 10:49:25;;;;;;;1.17;1.07;;;;;;;10.94;57.38;100131.53;4956392;28;21051;-71
2021/05/06 10:52:01;;;;;;;3.30;2.13;;;;;;;11.29;56.00;100141.34;4956634;28;20493;-71
2021/05/06 10:54:35;;;;;;;2.93;1.27;;;;;;;11.42;56.25;100126.06;4956703;28;20474;-71
2021/05/06 10:57:03;;;;;;;3.30;1.80;;;;;;;11.58;55.21;100129.06;4956348;28;20427;-70
2021/05/06 10:59:31;;;;;;;3.43;1.70;;;;;;;11.74;54.19;100132.91;4956370;28;21063;-71
2021/05/06 11:01:58;;;;;;;3.23;1.43;;;;;;;11.67;55.32;100129.88;4956816;28;20492;-71
2021/05/06 11:04:33;;;;;;;1.70;0.80;;;;;;;11.73;55.35;100134.03;4956314;28;20987;-71
2021/05/06 11:07:13;;;;;;;2.93;1.43;;;;;;;11.71;56.87;100122.69;4956352;28;20517;-70
2021/05/06 11:09:56;;;;;;;0.90;0.83;;;;;;;11.79;57.10;100121.91;4956198;28;20462;-71
2021/05/06 11:12:26;;;;;;;2.37;1.40;;;;;;;11.71;55.71;100124.59;4956619;28;20438;-71
2021/05/06 11:15:23;;;;;;;2.57;1.90;;;;;;;11.75;57.95;100115.50;4956506;28;20477;-71
2021/05/06 11:17:51;;;;;;;5.77;2.03;;;;;;;11.70;57.45;100117.59;4956588;28;20515;-71
2021/05/06 11:20:49;;;;;;;1.13;0.90;;;;;;;11.75;58.40;100112.78;4956345;28;20469;-71
2021/05/06 11:23:27;;;;;;;3.13;2.20;;;;;;;11.68;58.96;100117.91;4955989;29;20461;-72
2021/05/06 11:26:11;;;;;;;2.93;1.33;;;;;;;11.43;58.90;100126.84;4955579;28;20470;-71
2021/05/06 11:28:51;;;;;;;5.93;2.80;;;;;;;11.23;59.13;100118.19;4954879;28;20450;-71
2021/05/06 11:31:48;;;;;;;3.13;1.10;;;;;;;11.30;59.20;100115.81;4955838;28;20473;-71
2021/05/06 11:34:37;;;;;;;2.30;2.10;;;;;;;11.27;58.40;100119.16;4961746;29;20825;-71
2021/05/06 11:37:22;;;;;;;1.87;1.40;;;;;;;11.23;57.24;100115.47;4955921;28;20802;-72
2021/05/06 11:39:51;;;;;;;2.80;1.37;;;;;;;11.33;57.43;100114.38;4955824;28;20471;-69
2021/05/06 11:42:18;;;;;;;2.33;1.57;;;;;;;11.45;57.20;100111.84;4955389;28;20970;-71
2021/05/06 11:45:04;;;;;;;2.23;1.60;;;;;;;11.58;57.56;100110.88;4955492;28;20829;-71
2021/05/06 11:47:31;;;;;;;4.97;0.83;;;;;;;11.47;57.95;100103.41;4955431;28;20466;-70
2021/05/06 11:49:56;;;;;;;2.73;1.47;;;;;;;11.63;58.88;100102.56;4955018;28;20466;-70
2021/05/06 11:52:31;;;;;;;2.80;1.73;;;;;;;11.84;58.45;100105.47;4955398;28;20505;-69
2021/05/06 11:54:57;;;;;;;2.13;1.60;;;;;;;12.62;56.45;100105.28;4955206;28;20780;-70
2021/05/06 11:57:23;;;;;;;1.70;1.60;;;;;;;13.21;54.49;100101.75;4955272;28;20454;-70
2021/05/06 11:59:49;;;;;;;1.93;1.27;;;;;;;13.40;53.92;100097.81;4956089;28;20486;-69
2021/05/06 12:02:15;;;;;;;2.90;1.93;;;;;;;14.38;51.48;100094.28;4956173;28;20486;-69
2021/05/06 12:04:45;;;;;;;1.43;1.10;;;;;;;15.72;47.99;100097.28;4956032;28;20459;-70
2021/05/06 12:07:12;;;;;;;4.23;1.63;;;;;;;16.93;45.83;100103.13;4954942;28;20498;-70
2021/05/06 12:09:38;;;;;;;2.30;1.87;;;;;;;16.90;45.34;100107.34;4955945;28;20474;-67
2021/05/06 12:12:04;;;;;;;3.43;1.80;;;;;;;15.86;44.60;100112.09;4956095;28;20451;-69
2021/05/06 12:14:31;;;;;;;2.67;1.53;;;;;;;15.02;47.16;100103.78;4955879;28;20446;-70
2021/05/06 12:16:57;;;;;;;2.67;1.00;;;;;;;14.41;48.47;100105.66;4955484;28;20967;-71
2021/05/06 12:19:23;;;;;;;1.93;1.20;;;;;;;13.76;48.65;100095.25;4955710;28;20563;-70
2021/05/06 12:21:53;;;;;;;1.27;1.10;;;;;;;14.63;49.89;100092.41;4955367;28;21022;-71
2021/05/06 12:24:28;;;;;;;1.87;1.27;;;;;;;15.76;45.76;100090.75;4955722;28;20533;-71
2021/05/06 12:26:54;;;;;;;2.07;1.10;;;;;;;17.26;44.09;100091.72;4955826;28;20494;-71
2021/05/06 12:29:24;;;;;;;1.90;1.40;;;;;;;17.12;41.23;100091.41;4955758;28;20863;-70
2021/05/06 12:31:52;;;;;;;1.40;1.30;;;;;;;18.06;41.44;100089.44;4954948;28;20924;-71
2021/05/06 12:34:20;;;;;;;2.07;1.13;;;;;;;17.27;40.62;100074.19;4955092;28;20505;-72
2021/05/06 12:36:55;;;;;;;2.70;1.63;;;;;;;16.46;43.14;100075.78;4954939;28;20462;-71
2021/05/06 12:39:22;;;;;;;0.80;0.80;;;;;;;16.59;42.71;100080.00;4954856;28;20458;-73
2021/05/06 12:41:51;;;;;;;1.20;1.10;;;;;;;16.46;43.25;100083.97;4954685;28;20952;-73
2021/05/06 12:44:32;;;;;;;1.20;1.03;;;;;;;15.81;42.17;100071.41;4954631;28;20879;-72
2021/05/06 12:47:11;;;;;;;0.83;0.77;;;;;;;14.96;42.50;100080.56;4955159;28;20470;-72
2021/05/06 12:49:37;;;;;;;1.07;0.90;;;;;;;14.64;43.51;100068.66;4954837;28;20584;-68
2021/05/06 12:52:04;;;;;;;0.80;0.73;;;;;;;15.20;42.34;100071.56;4955066;28;20450;-66
2021/05/06 12:54:34;;;;;;;0.70;0.70;;;;;;;15.42;41.42;100075.72;4955163;28;20450;-67
2021/05/06 12:57:14;;;;;;;0.80;0.80;;;;;;;14.89;42.72;100064.81;4955158;28;20450;-69
2021/05/06 12:59:40;;;;;;;0.80;0.70;;;;;;;15.00;43.70;100058.88;4954568;28;20581;-68
2021/05/06 13:02:09;;;;;;;0.70;0.63;;;;;;;15.33;42.37;100058.69;4954700;28;20509;-70
2021/05/06 13:04:45;;;;;;;1.00;0.80;;;;;;;15.62;42.84;100055.59;4955011;28;20478;-69
2021/05/06 13:07:12;;;;;;;1.33;1.07;;;;;;;15.75;41.51;100056.38;4954974;28;20476;-70
2021/05/06 13:09:43;;;;;;;0.77;0.73;;;;;;;16.19;41.29;100055.56;4954376;28;20525;-71
2021/05/06 13:12:14;;;;;;;1.00;0.77;;;;;;;16.69;40.92;100041.19;4954670;28;20975;-72
2021/05/06 13:14:49;;;;;;;1.57;0.97;;;;;;;17.20;38.93;100043.91;4955235;28;20766;-72
2021/05/06 13:17:25;;;;;;;1.50;0.90;;;;;;;17.48;38.82;100049.16;4954389;28;20426;-68
2021/05/06 13:19:51;;;;;;;0.80;0.70;;;;;;;17.17;39.47;100041.09;4957022;28;20462;-70
2021/05/06 13:22:19;;;;;;;1.93;0.90;;;;;;;16.60;40.86;100043.31;4957945;28;20948;-71
2021/05/06 13:24:48;;;;;;;1.30;1.13;;;;;;;16.64;41.57;100039.53;4959095;28;20438;-71
2021/05/06 13:27:14;;;;;;;1.63;1.30;;;;;;;17.31;41.68;100039.47;4961710;29;20944;-71
2021/05/06 13:29:47;;;;;;;2.30;0.73;;;;;;;18.19;39.84;100047.00;4958011;28;20473;-71
2021/05/06 13:32:13;;;;;;;1.17;0.90;;;;;;;18.28;36.36;100046.75;4958022;28;20431;-70
2021/05/06 13:34:52;;;;;;;1.60;1.00;;;;;;;17.57;37.18;100047.00;4957951;28;20442;-70
2021/05/06 13:37:19;;;;;;;1.00;0.90;;;;;;;17.50;36.63;100038.66;4958029;28;20482;-71
2021/05/06 13:39:45;;;;;;;0.90;0.80;;;;;;;17.13;37.74;100044.56;4957529;28;20839;-70
2021/05/06 13:42:11;;;;;;;1.90;0.90;;;;;;;16.75;38.93;100041.75;4957889;28;20458;-70
2021/05/06 13:44:37;;;;;;;1.23;0.90;;;;;;;16.39;40.03;100022.53;4957632;28;20944;-73
2021/05/06 13:47:06;;;;;;;1.40;0.83;;;;;;;17.18;39.73;100029.78;4957259;28;20505;-72
2021/05/06 13:49:34;;;;;;;0.97;0.73;;;;;;;17.90;39.05;100026.53;4957466;28;20634;-71
2021/05/06 13:52:01;;;;;;;0.93;0.80;;;;;;;18.45;38.91;100035.28;4957422;28;20964;-71
2021/05/06 13:54:28;;;;;;;2.67;0.90;;;;;;;18.64;38.52;100035.19;4957722;28;20442;-71
2021/05/06 13:56:54;;;;;;;1.20;1.00;;;;;;;18.18;37.92;100041.88;4957713;28;20465;-71
2021/05/06 13:59:20;;;;;;;0.83;0.77;;;;;;;17.28;39.66;100033.91;4957535;28;20567;-71
2021/05/06 14:01:52;;;;;;;1.53;1.00;;;;;;;16.80;40.26;100034.03;4957875;28;20521;-71
2021/05/06 14:04:18;;;;;;;4.23;1.43;;;;;;;15.92;41.97;100035.38;4957558;28;20506;-71
2021/05/06 14:06:44;;;;;;;2.33;1.43;;;;;;;15.59;43.36;100033.69;4957131;28;20498;-71
2021/05/06 14:09:15;;;;;;;1.03;0.70;;;;;;;15.38;43.87;100037.41;4957625;28;20515;-71